createdAt,value
2022-10-05T00:00:17.742Z,2.15
2022-10-05T00:02:46.965Z,1.88
2022-10-05T00:05:28.632Z,1.80
2022-10-05T00:07:58.954Z,1.65
2022-10-05T00:10:27.384Z,1.80
2022-10-05T00:12:55.750Z,1.92
2022-10-05T00:15:25.562Z,1.83
2022-10-05T00:17:54.053Z,1.70
2022-10-05T00:20:25.592Z,1.63
2022-10-05T00:22:58.599Z,1.58
2022-10-05T00:25:27.104Z,1.75
2022-10-05T00:27:57.859Z,1.73
2022-10-05T00:30:33.616Z,1.40
2022-10-05T00:33:02.216Z,1.63
2022-10-05T00:35:31.623Z,1.60
2022-10-05T00:38:00.101Z,1.42
2022-10-05T00:40:38.029Z,1.58
2022-10-05T00:43:24.642Z,1.40
2022-10-05T00:45:58.964Z,1.65
2022-10-05T00:48:37.282Z,1.60
2022-10-05T00:51:21.456Z,1.50
2022-10-05T00:54:13.547Z,1.50
2022-10-05T00:57:10.562Z,1.48
2022-10-05T00:59:50.306Z,1.50
2022-10-05T01:02:30.913Z,1.48
2022-10-05T01:05:09.069Z,1.60
2022-10-05T01:07:46.936Z,1.58
2022-10-05T01:10:24.388Z,1.90
2022-10-05T01:13:04.956Z,1.70
2022-10-05T01:15:40.394Z,1.95
2022-10-05T01:18:17.763Z,1.77
2022-10-05T01:20:57.706Z,1.98
2022-10-05T01:24:07.703Z,1.67
2022-10-05T01:26:53.080Z,1.80
2022-10-05T01:29:26.349Z,1.90
2022-10-05T01:32:04.794Z,1.80
2022-10-05T01:34:41.505Z,1.80
2022-10-05T01:37:18.580Z,1.85
2022-10-05T01:39:53.921Z,2.13
2022-10-05T01:42:32.566Z,1.98
2022-10-05T01:45:07.737Z,1.98
2022-10-05T01:47:43.808Z,1.80
2022-10-05T01:50:21.442Z,2.20
2022-10-05T01:52:57.390Z,1.88
2022-10-05T01:55:32.799Z,1.85
2022-10-05T01:58:11.612Z,2.03
2022-10-05T02:03:20.311Z,1.70
2022-10-05T02:05:54.157Z,1.73
2022-10-05T02:08:31.078Z,2.00
2022-10-05T02:11:03.499Z,1.73
2022-10-05T02:13:36.835Z,2.00
2022-10-05T02:16:15.771Z,1.73
2022-10-05T02:18:51.023Z,2.25
2022-10-05T02:21:21.968Z,2.13
2022-10-05T02:23:54.823Z,2.22
2022-10-05T02:26:25.529Z,2.00
2022-10-05T02:29:00.092Z,1.92
2022-10-05T02:31:37.487Z,2.22
2022-10-05T02:34:38.909Z,2.00
2022-10-05T02:37:33.169Z,2.40
2022-10-05T02:40:16.632Z,2.80
2022-10-05T02:42:52.737Z,2.25
2022-10-05T02:45:35.579Z,2.88
2022-10-05T02:48:16.226Z,2.45
2022-10-05T02:50:54.752Z,2.42
2022-10-05T02:53:30.196Z,2.33
2022-10-05T02:56:12.302Z,2.97
2022-10-05T02:58:47.487Z,2.30
2022-10-05T03:01:25.147Z,3.10
2022-10-05T03:04:06.407Z,2.97
2022-10-05T03:06:47.289Z,2.90
2022-10-05T03:09:21.639Z,2.75
2022-10-05T03:12:00.486Z,3.70
2022-10-05T03:14:41.325Z,2.65
2022-10-05T03:17:16.632Z,3.13
2022-10-05T03:20:14.639Z,2.95
2022-10-05T03:22:51.743Z,2.65
2022-10-05T03:25:51.465Z,2.63
2022-10-05T03:28:25.801Z,2.67
2022-10-05T03:31:02.599Z,3.28
2022-10-05T03:33:43.686Z,3.22
2022-10-05T03:36:23.157Z,3.15
2022-10-05T03:39:02.127Z,2.70
2022-10-05T03:41:38.058Z,3.20
2022-10-05T03:44:20.682Z,2.80
2022-10-05T03:47:09.354Z,2.92
2022-10-05T03:49:52.993Z,3.17
2022-10-05T03:52:27.552Z,3.30
2022-10-05T03:55:02.784Z,3.00
2022-10-05T03:57:37.758Z,2.70
2022-10-05T04:00:14.437Z,3.08
2022-10-05T04:02:54.223Z,2.55
2022-10-05T04:05:26.170Z,3.22
2022-10-05T04:08:00.797Z,2.78
2022-10-05T04:10:32.746Z,3.42
2022-10-05T04:13:08.154Z,2.80
2022-10-05T04:15:42.786Z,3.20
2022-10-05T04:18:23.689Z,3.28
2022-10-05T04:20:57.515Z,3.95
2022-10-05T04:23:39.783Z,3.53
2022-10-05T04:26:14.025Z,3.70
2022-10-05T04:28:50.208Z,3.58
2022-10-05T04:31:29.782Z,3.35
2022-10-05T04:34:11.652Z,4.00
2022-10-05T04:36:47.018Z,4.00
2022-10-05T04:39:27.383Z,3.83
2022-10-05T04:42:09.481Z,3.80
2022-10-05T04:45:03.701Z,3.65
2022-10-05T04:48:09.569Z,3.65
2022-10-05T04:50:53.601Z,3.53
2022-10-05T04:53:31.592Z,3.65
2022-10-05T04:56:09.410Z,4.65
2022-10-05T04:58:58.276Z,3.75
2022-10-05T05:01:41.293Z,3.38
2022-10-05T05:04:35.830Z,3.60
2022-10-05T05:07:21.708Z,3.97
2022-10-05T05:10:16.520Z,4.20
2022-10-05T05:12:57.438Z,3.55
2022-10-05T05:15:39.768Z,3.97
2022-10-05T05:18:33.856Z,3.80
2022-10-05T05:21:14.865Z,4.65
2022-10-05T05:23:50.617Z,4.38
2022-10-05T05:26:28.553Z,5.10
2022-10-05T05:29:10.104Z,5.10
2022-10-05T05:31:47.339Z,4.57
2022-10-05T05:34:34.417Z,5.47
2022-10-05T05:37:15.718Z,5.25
2022-10-05T05:39:53.636Z,5.80
2022-10-05T05:42:35.678Z,5.35
2022-10-05T05:45:15.872Z,6.90
2022-10-05T05:47:52.125Z,6.38
2022-10-05T05:50:43.318Z,5.15
2022-10-05T05:53:22.006Z,6.50
2022-10-05T05:55:56.480Z,5.30
2022-10-05T05:58:30.391Z,4.70
2022-10-05T06:01:06.585Z,4.68
2022-10-05T06:03:39.606Z,4.32
2022-10-05T06:06:12.717Z,3.63
2022-10-05T06:08:45.858Z,3.40
2022-10-05T06:11:49.375Z,3.42
2022-10-05T06:14:27.222Z,3.95
2022-10-05T06:17:02.609Z,4.43
2022-10-05T06:19:34.752Z,3.60
2022-10-05T06:22:08.584Z,3.70
2022-10-05T06:24:43.449Z,3.50
2022-10-05T06:27:26.500Z,4.32
2022-10-05T06:30:05.852Z,4.10
2022-10-05T06:32:59.199Z,3.90
2022-10-05T06:35:42.654Z,3.97
2022-10-05T06:38:29.229Z,4.07
2022-10-05T06:41:07.391Z,4.40
2022-10-05T06:43:48.697Z,3.90
2022-10-05T06:46:45.340Z,4.78
2022-10-05T06:49:26.681Z,3.83
2022-10-05T06:52:23.778Z,4.30
2022-10-05T06:55:08.585Z,3.65
2022-10-05T06:57:55.108Z,4.03
2022-10-05T07:00:26.381Z,3.60
2022-10-05T07:03:01.898Z,4.50
2022-10-05T07:05:49.169Z,4.20
2022-10-05T07:08:26.826Z,4.50
2022-10-05T07:11:05.996Z,4.07
2022-10-05T07:13:51.911Z,4.03
2022-10-05T07:16:31.219Z,3.83
2022-10-05T07:19:11.669Z,3.83
2022-10-05T07:21:48.825Z,3.95
2022-10-05T07:24:30.615Z,3.90
2022-10-05T07:27:11.127Z,3.95
2022-10-05T07:29:50.211Z,4.03
2022-10-05T07:32:33.877Z,3.83
2022-10-05T07:35:09.648Z,4.53
2022-10-05T07:37:55.045Z,4.45
2022-10-05T07:40:31.837Z,4.65
2022-10-05T07:43:08.972Z,5.32
2022-10-05T07:45:46.390Z,4.53
2022-10-05T07:48:20.168Z,4.97
2022-10-05T07:51:02.817Z,4.40
2022-10-05T07:53:39.031Z,4.20
2022-10-05T07:56:14.654Z,3.22
2022-10-05T07:58:48.153Z,3.70
2022-10-05T08:01:23.573Z,3.25
2022-10-05T08:03:59.308Z,3.10
2022-10-05T08:06:42.128Z,3.10
2022-10-05T08:09:28.207Z,2.88
2022-10-05T08:12:08.812Z,3.55
2022-10-05T08:14:45.963Z,3.65
2022-10-05T08:17:25.668Z,3.03
2022-10-05T08:20:00.558Z,2.50
2022-10-05T08:22:35.027Z,2.92
2022-10-05T08:25:11.183Z,2.50
2022-10-05T08:27:46.971Z,2.65
2022-10-05T08:30:17.546Z,3.03
2022-10-05T08:32:52.375Z,2.42
2022-10-05T08:35:32.020Z,2.22
2022-10-05T08:38:00.688Z,2.67
2022-10-05T08:41:03.097Z,2.10
2022-10-05T08:44:13.909Z,2.50
2022-10-05T08:47:16.062Z,2.10
2022-10-05T08:50:04.824Z,2.40
2022-10-05T08:52:43.411Z,2.38
2022-10-05T08:55:44.899Z,2.78
2022-10-05T08:58:51.048Z,2.50
2022-10-05T09:01:34.128Z,2.47
2022-10-05T09:04:23.825Z,2.50
2022-10-05T09:07:10.652Z,2.75
2022-10-05T09:10:12.519Z,2.50
2022-10-05T09:12:59.446Z,2.80
2022-10-05T09:16:03.356Z,2.90
2022-10-05T09:19:01.358Z,2.33
2022-10-05T09:21:43.052Z,2.25
2022-10-05T09:24:29.564Z,2.13
2022-10-05T09:27:03.648Z,2.00
2022-10-05T09:30:05.804Z,2.70
2022-10-05T09:33:17.718Z,2.33
2022-10-05T09:36:06.169Z,1.92
2022-10-05T09:38:50.988Z,1.98
2022-10-05T09:41:49.413Z,2.25
2022-10-05T09:47:25.322Z,1.95
2022-10-05T09:50:13.435Z,1.67
2022-10-05T09:53:06.198Z,2.40
2022-10-05T09:56:10.534Z,2.38
2022-10-05T09:59:30.552Z,2.10
2022-10-05T10:02:20.625Z,2.00
2022-10-05T10:05:25.429Z,1.58
2022-10-05T10:08:11.763Z,1.20
2022-10-05T10:11:03.138Z,1.40
2022-10-05T10:14:10.497Z,1.50
2022-10-05T10:17:09.010Z,1.77
2022-10-05T10:20:05.426Z,1.27
2022-10-05T10:23:14.091Z,1.30
2022-10-05T10:26:20.903Z,1.60
2022-10-05T10:29:14.058Z,1.95
2022-10-05T10:31:58.276Z,1.40
2022-10-05T10:34:55.790Z,1.40
2022-10-05T10:37:39.261Z,1.67
2022-10-05T10:40:35.034Z,2.30
2022-10-05T10:43:33.275Z,2.17
2022-10-05T10:46:09.383Z,2.00
2022-10-05T10:48:55.814Z,1.85
2022-10-05T10:51:47.962Z,2.03
2022-10-05T10:54:53.608Z,2.38
2022-10-05T10:57:34.081Z,1.80
2022-10-05T11:00:18.177Z,1.65
2022-10-05T11:03:31.234Z,1.55
2022-10-05T11:06:27.650Z,1.63
2022-10-05T11:09:09.786Z,1.70
2022-10-05T11:12:13.647Z,1.55
2022-10-05T11:15:10.245Z,1.60
2022-10-05T11:18:06.129Z,1.65
2022-10-05T11:21:15.262Z,1.80
2022-10-05T11:24:14.121Z,1.88
2022-10-05T11:27:00.848Z,1.50
2022-10-05T11:29:49.589Z,1.45
2022-10-05T11:32:40.094Z,1.40
2022-10-05T11:35:43.185Z,1.25
2022-10-05T11:38:37.199Z,1.92
2022-10-05T11:41:34.337Z,1.33
2022-10-05T11:44:59.150Z,1.27
2022-10-05T11:47:32.516Z,1.50
2022-10-05T11:50:12.790Z,1.20
2022-10-05T11:52:48.622Z,1.23
2022-10-05T11:55:27.877Z,1.50
2022-10-05T11:58:01.196Z,1.20
2022-10-05T12:00:37.978Z,1.88
2022-10-05T12:03:32.264Z,1.63
2022-10-05T12:06:17.523Z,1.50
2022-10-05T12:08:58.688Z,1.38
2022-10-05T12:11:43.475Z,1.80
2022-10-05T12:14:24.451Z,2.17
2022-10-05T12:17:00.221Z,1.77
2022-10-05T12:19:36.926Z,1.85
2022-10-05T12:22:16.421Z,1.58
2022-10-05T12:25:15.097Z,1.67
2022-10-05T12:27:48.220Z,3.90
2022-10-05T12:30:19.969Z,4.63
2022-10-05T12:33:02.383Z,5.88
2022-10-05T12:35:53.770Z,5.63
2022-10-05T12:38:29.709Z,6.22
2022-10-05T12:41:11.319Z,7.43
2022-10-05T12:43:50.455Z,6.38
2022-10-05T12:46:28.468Z,7.13
2022-10-05T12:49:28.415Z,5.18
2022-10-05T12:52:02.191Z,3.25
2022-10-05T12:54:43.985Z,3.75
2022-10-05T12:57:21.720Z,1.90
2022-10-05T12:59:57.929Z,3.67
2022-10-05T13:02:39.185Z,9.35
2022-10-05T13:05:21.448Z,10.30
2022-10-05T13:08:09.540Z,8.68
2022-10-05T13:10:41.965Z,2.67
2022-10-05T13:13:37.463Z,1.70
2022-10-05T13:16:18.535Z,1.10
2022-10-05T13:19:01.619Z,1.60
2022-10-05T13:21:40.828Z,1.45
2022-10-05T13:24:19.698Z,1.33
2022-10-05T13:26:54.405Z,1.10
2022-10-05T13:29:30.286Z,1.10
2022-10-05T13:32:05.987Z,1.63
2022-10-05T13:34:42.719Z,1.33
2022-10-05T13:37:21.235Z,1.20
2022-10-05T13:42:36.890Z,1.42
2022-10-05T13:45:14.677Z,1.45
2022-10-05T13:47:55.097Z,1.60
2022-10-05T13:50:32.661Z,1.40
2022-10-05T13:53:13.883Z,1.67
2022-10-05T13:55:47.771Z,1.55
2022-10-05T13:58:24.118Z,1.95
2022-10-05T14:00:56.066Z,1.70
2022-10-05T14:03:31.403Z,2.00
2022-10-05T14:06:02.784Z,2.10
2022-10-05T14:08:34.819Z,1.98
2022-10-05T14:11:22.220Z,2.20
2022-10-05T14:13:53.302Z,1.95
2022-10-05T14:16:23.831Z,2.03
2022-10-05T14:18:56.380Z,2.63
2022-10-05T14:21:27.457Z,2.08
2022-10-05T14:23:57.264Z,1.95
2022-10-05T14:26:38.741Z,2.17
2022-10-05T14:29:19.358Z,2.25
2022-10-05T14:31:53.145Z,2.20
2022-10-05T14:34:35.268Z,2.22
2022-10-05T14:37:18.744Z,2.58
2022-10-05T14:39:49.996Z,2.20
2022-10-05T14:42:22.912Z,2.30
2022-10-05T14:45:12.808Z,1.85
2022-10-05T14:47:49.139Z,1.30
2022-10-05T14:50:21.613Z,2.30
2022-10-05T14:53:05.171Z,1.45
2022-10-05T14:56:05.375Z,1.83
2022-10-05T14:58:59.092Z,1.40
2022-10-05T15:01:31.146Z,0.80
2022-10-05T15:04:13.676Z,1.10
2022-10-05T15:06:51.106Z,1.10
2022-10-05T15:09:47.487Z,1.40
2022-10-05T15:12:23.697Z,1.38
2022-10-05T15:15:02.884Z,1.50
2022-10-05T15:17:37.888Z,2.37
2022-10-05T15:20:18.056Z,2.63
2022-10-05T15:22:51.477Z,2.38
2022-10-05T15:25:32.399Z,2.30
2022-10-05T15:28:21.844Z,1.80
2022-10-05T15:31:01.502Z,1.80
2022-10-05T15:33:39.836Z,1.88
2022-10-05T15:36:20.390Z,1.88
2022-10-05T15:39:03.575Z,1.98
2022-10-05T15:41:49.302Z,1.85
2022-10-05T15:44:29.939Z,3.78
2022-10-05T15:47:06.465Z,3.42
2022-10-05T15:49:47.831Z,3.10
2022-10-05T15:52:24.901Z,4.05
2022-10-05T15:55:19.735Z,4.88
2022-10-05T15:57:59.756Z,5.53
2022-10-05T16:00:35.780Z,2.13
2022-10-05T16:03:20.375Z,1.88
2022-10-05T16:06:12.918Z,1.25
2022-10-05T16:09:11.353Z,0.88
2022-10-05T16:12:05.663Z,0.90
2022-10-05T16:14:45.342Z,0.60
2022-10-05T16:17:28.392Z,0.95
2022-10-05T16:20:17.766Z,1.08
2022-10-05T16:22:59.836Z,0.93
2022-10-05T16:25:45.874Z,0.80
2022-10-05T16:28:29.341Z,0.75
2022-10-05T16:31:04.571Z,0.77
2022-10-05T16:33:53.132Z,1.47
2022-10-05T16:36:37.795Z,1.10
2022-10-05T16:39:15.514Z,1.30
2022-10-05T16:41:57.297Z,1.10
2022-10-05T16:44:37.673Z,2.47
2022-10-05T16:47:29.440Z,4.90
2022-10-05T16:50:05.340Z,10.00
2022-10-05T16:52:44.285Z,8.88
2022-10-05T16:55:20.446Z,10.77
2022-10-05T16:57:56.130Z,7.20
2022-10-05T17:00:30.299Z,7.20
2022-10-05T17:03:26.180Z,7.25
2022-10-05T17:06:22.042Z,5.28
2022-10-05T17:09:20.480Z,4.07
2022-10-05T17:12:04.528Z,3.65
2022-10-05T17:14:42.327Z,2.58
2022-10-05T17:17:41.579Z,2.17
2022-10-05T17:20:41.645Z,1.77
2022-10-05T17:23:35.851Z,2.20
2022-10-05T17:26:45.200Z,1.48
2022-10-05T17:29:32.009Z,1.80
2022-10-05T17:32:14.045Z,1.67
2022-10-05T17:35:18.478Z,1.70
2022-10-05T17:38:08.050Z,1.38
2022-10-05T17:40:40.545Z,1.45
2022-10-05T17:46:12.706Z,1.58
2022-10-05T17:49:08.923Z,1.70
2022-10-05T17:52:21.662Z,1.17
2022-10-05T17:55:28.321Z,1.50
2022-10-05T17:58:21.900Z,1.30
2022-10-05T18:01:15.090Z,1.20
2022-10-05T18:03:51.596Z,1.33
2022-10-05T18:06:37.978Z,1.30
2022-10-05T18:09:33.217Z,1.30
2022-10-05T18:12:28.260Z,1.45
2022-10-05T18:15:31.597Z,1.30
2022-10-05T18:18:25.263Z,1.48
2022-10-05T18:21:28.871Z,1.40
2022-10-05T18:24:20.101Z,1.60
2022-10-05T18:27:04.654Z,1.48
2022-10-05T18:30:09.514Z,1.42
2022-10-05T18:32:59.044Z,1.63
2022-10-05T18:35:38.213Z,2.30
2022-10-05T18:38:34.798Z,2.60
2022-10-05T18:41:10.341Z,1.73
2022-10-05T18:43:45.894Z,1.90
2022-10-05T18:46:33.126Z,1.60
2022-10-05T18:49:32.020Z,1.13
2022-10-05T18:52:13.610Z,1.20
2022-10-05T18:55:00.967Z,1.10
2022-10-05T18:58:19.230Z,2.05
2022-10-05T19:01:18.054Z,1.40
2022-10-05T19:04:04.872Z,1.02
2022-10-05T19:06:47.889Z,1.45
2022-10-05T19:09:42.147Z,1.30
2022-10-05T19:12:24.366Z,1.33
2022-10-05T19:15:06.633Z,1.60
2022-10-05T19:18:07.394Z,1.67
2022-10-05T19:20:48.615Z,2.00
2022-10-05T19:23:37.514Z,2.42
2022-10-05T19:26:27.571Z,2.20
2022-10-05T19:29:12.520Z,2.20
2022-10-05T19:31:51.129Z,1.33
2022-10-05T19:34:43.580Z,1.30
2022-10-05T19:37:23.224Z,1.50
2022-10-05T19:40:07.338Z,1.90
2022-10-05T19:43:07.355Z,1.88
2022-10-05T19:45:44.865Z,2.20
2022-10-05T19:48:30.653Z,2.53
2022-10-05T19:51:04.880Z,2.65
2022-10-05T19:53:38.710Z,2.53
2022-10-05T19:56:20.865Z,3.00
2022-10-05T19:59:00.360Z,3.22
2022-10-05T20:01:39.505Z,3.17
2022-10-05T20:04:11.946Z,3.22
2022-10-05T20:06:40.949Z,3.47
2022-10-05T20:09:27.800Z,3.03
2022-10-05T20:12:00.993Z,3.00
2022-10-05T20:14:59.216Z,2.60
2022-10-05T20:17:56.061Z,2.60
2022-10-05T20:20:39.659Z,2.20
2022-10-05T20:23:24.087Z,2.20
2022-10-05T20:26:13.331Z,2.42
2022-10-05T20:28:43.202Z,2.10
2022-10-05T20:31:12.678Z,1.90
2022-10-05T20:33:42.899Z,2.15
2022-10-05T20:36:13.598Z,2.03
2022-10-05T20:38:45.764Z,2.28
2022-10-05T20:41:17.938Z,2.30
2022-10-05T20:43:49.385Z,2.50
2022-10-05T20:46:21.791Z,2.00
2022-10-05T20:48:53.888Z,2.15
2022-10-05T20:51:23.689Z,2.35
2022-10-05T20:53:52.241Z,1.50
2022-10-05T20:56:26.401Z,2.20
2022-10-05T20:58:55.477Z,2.17
2022-10-05T21:01:27.148Z,2.17
2022-10-05T21:03:58.021Z,2.28
2022-10-05T21:06:28.234Z,2.20
2022-10-05T21:08:57.179Z,2.50
2022-10-05T21:11:28.711Z,2.10
2022-10-05T21:14:04.797Z,2.10
2022-10-05T21:16:38.398Z,2.75
2022-10-05T21:19:17.129Z,2.90
2022-10-05T21:21:47.152Z,3.40
2022-10-05T21:24:18.861Z,3.60
2022-10-05T21:26:50.308Z,4.93
2022-10-05T21:29:22.444Z,6.05
2022-10-05T21:31:51.241Z,4.75
2022-10-05T21:36:49.378Z,2.08
2022-10-05T21:39:21.093Z,2.30
2022-10-05T21:41:49.908Z,3.17
2022-10-05T21:46:51.399Z,2.90
2022-10-05T21:49:21.772Z,3.00
2022-10-05T21:51:50.319Z,3.28
2022-10-05T21:54:22.064Z,3.75
2022-10-05T21:56:52.885Z,2.60
2022-10-05T21:59:25.352Z,3.83
2022-10-05T22:01:54.150Z,3.33
2022-10-05T22:04:24.412Z,3.10
2022-10-05T22:06:52.825Z,3.67
2022-10-05T22:09:21.209Z,4.05
2022-10-05T22:11:50.229Z,4.32
2022-10-05T22:14:18.933Z,3.08
2022-10-05T22:16:47.802Z,7.10
2022-10-05T22:19:19.377Z,4.60
2022-10-05T22:21:49.320Z,5.88
2022-10-05T22:24:18.073Z,4.57
2022-10-05T22:26:49.116Z,5.32
2022-10-05T22:29:18.325Z,2.55
2022-10-05T22:31:49.155Z,2.65
2022-10-05T22:34:18.288Z,4.40
2022-10-05T22:36:48.777Z,3.58
2022-10-05T22:39:18.364Z,4.82
2022-10-05T22:41:46.969Z,3.85
2022-10-05T22:44:15.416Z,4.93
2022-10-05T22:46:44.738Z,4.20
2022-10-05T22:49:13.228Z,4.10
2022-10-05T22:51:41.664Z,3.67
2022-10-05T22:54:11.512Z,6.05
2022-10-05T22:56:39.857Z,3.58
2022-10-05T22:59:08.439Z,4.95
2022-10-05T23:01:36.928Z,4.63
2022-10-05T23:04:05.522Z,5.00
2022-10-05T23:06:33.908Z,6.63
2022-10-05T23:09:02.341Z,5.45
2022-10-05T23:11:32.129Z,4.15
2022-10-05T23:14:00.699Z,5.40
2022-10-05T23:16:30.279Z,3.10
2022-10-05T23:19:00.224Z,4.38
2022-10-05T23:21:30.932Z,3.50
2022-10-05T23:23:59.416Z,3.15
2022-10-05T23:26:28.018Z,3.72
2022-10-05T23:28:57.866Z,3.25
2022-10-05T23:31:28.144Z,2.80
2022-10-05T23:33:56.612Z,2.50
2022-10-05T23:36:27.678Z,2.28
2022-10-05T23:38:56.170Z,2.40
2022-10-05T23:41:25.572Z,2.60
2022-10-05T23:43:55.340Z,2.92
2022-10-05T23:46:25.485Z,2.35
2022-10-05T23:48:54.393Z,2.28
2022-10-05T23:53:50.862Z,2.65
2022-10-05T23:56:19.289Z,2.60
2022-10-05T23:58:47.704Z,2.53
